createdAt,value
2023-09-10T00:00:51.724Z,16.76
2023-09-10T00:03:18.484Z,16.88
2023-09-10T00:05:45.296Z,16.86
2023-09-10T00:08:12.058Z,16.97
2023-09-10T00:10:39.731Z,16.75
2023-09-10T00:13:06.481Z,16.80
2023-09-10T00:15:33.200Z,16.93
2023-09-10T00:18:00.185Z,16.60
2023-09-10T00:20:28.240Z,16.54
2023-09-10T00:22:58.319Z,16.57
2023-09-10T00:25:25.646Z,16.62
2023-09-10T00:27:52.461Z,16.44
2023-09-10T00:30:19.179Z,16.63
2023-09-10T00:32:45.811Z,16.56
2023-09-10T00:35:12.540Z,16.30
2023-09-10T00:37:39.260Z,16.39
2023-09-10T00:40:07.052Z,16.38
2023-09-10T00:42:33.694Z,16.27
2023-09-10T00:45:00.341Z,16.43
2023-09-10T00:47:28.226Z,16.37
2023-09-10T00:49:55.635Z,16.37
2023-09-10T00:52:23.468Z,16.23
2023-09-10T00:54:51.022Z,16.30
2023-09-10T00:57:17.994Z,16.03
2023-09-10T00:59:45.160Z,16.17
2023-09-10T01:02:15.342Z,16.18
2023-09-10T01:04:42.704Z,16.32
2023-09-10T01:07:10.478Z,16.38
2023-09-10T01:09:37.124Z,16.37
2023-09-10T01:12:15.018Z,16.35
2023-09-10T01:15:01.188Z,16.36
2023-09-10T01:17:46.083Z,16.34
2023-09-10T01:20:43.725Z,16.12
2023-09-10T01:23:25.509Z,16.25
2023-09-10T01:25:52.847Z,16.21
2023-09-10T01:28:19.492Z,15.95
2023-09-10T01:30:46.140Z,15.93
2023-09-10T01:33:35.167Z,15.74
2023-09-10T01:36:26.490Z,15.92
2023-09-10T01:39:00.986Z,15.96
2023-09-10T01:41:28.418Z,15.94
2023-09-10T01:43:55.666Z,15.76
2023-09-10T01:46:26.180Z,15.97
2023-09-10T01:48:53.014Z,15.95
2023-09-10T01:51:20.201Z,15.76
2023-09-10T01:53:47.711Z,15.76
2023-09-10T01:56:14.450Z,15.55
2023-09-10T01:58:41.352Z,15.36
2023-09-10T02:01:08.256Z,15.28
2023-09-10T02:03:34.918Z,15.48
2023-09-10T02:06:04.513Z,15.44
2023-09-10T02:08:31.591Z,15.62
2023-09-10T02:10:58.331Z,15.62
2023-09-10T02:13:25.005Z,15.52
2023-09-10T02:15:51.848Z,15.34
2023-09-10T02:18:18.548Z,15.32
2023-09-10T02:20:45.128Z,15.45
2023-09-10T02:23:11.739Z,15.60
2023-09-10T02:25:40.123Z,15.66
2023-09-10T02:28:07.482Z,15.54
2023-09-10T02:30:35.384Z,15.68
2023-09-10T02:33:02.079Z,15.63
2023-09-10T02:35:28.853Z,15.59
2023-09-10T02:37:55.747Z,15.51
2023-09-10T02:40:22.579Z,15.57
2023-09-10T02:42:49.210Z,15.47
2023-09-10T02:45:17.045Z,15.35
2023-09-10T02:47:43.981Z,15.44
2023-09-10T02:50:10.744Z,15.54
2023-09-10T02:52:37.808Z,15.53
2023-09-10T02:55:04.954Z,15.47
2023-09-10T02:57:31.665Z,15.30
2023-09-10T02:59:58.438Z,15.41
2023-09-10T03:02:25.184Z,15.49
2023-09-10T03:04:51.938Z,15.16
2023-09-10T03:07:18.767Z,15.38
2023-09-10T03:09:45.420Z,15.35
2023-09-10T03:12:23.898Z,15.06
2023-09-10T03:14:51.842Z,15.14
2023-09-10T03:17:19.487Z,15.25
2023-09-10T03:19:46.526Z,15.29
2023-09-10T03:22:15.237Z,15.09
2023-09-10T03:24:41.899Z,15.28
2023-09-10T03:27:08.583Z,15.31
2023-09-10T03:29:35.946Z,15.41
2023-09-10T03:32:05.680Z,15.29
2023-09-10T03:34:32.591Z,15.20
2023-09-10T03:36:59.520Z,15.19
2023-09-10T03:39:27.018Z,15.13
2023-09-10T03:41:54.039Z,15.12
2023-09-10T03:44:21.378Z,14.94
2023-09-10T03:46:48.479Z,14.68
2023-09-10T03:49:15.593Z,14.63
2023-09-10T03:51:42.313Z,14.90
2023-09-10T03:54:12.787Z,14.80
2023-09-10T03:56:40.831Z,14.80
2023-09-10T03:59:08.489Z,14.95
2023-09-10T04:01:36.622Z,14.57
2023-09-10T04:04:04.590Z,14.80
2023-09-10T04:06:31.221Z,14.68
2023-09-10T04:08:57.821Z,14.64
2023-09-10T04:11:24.444Z,14.74
2023-09-10T04:13:51.133Z,14.76
2023-09-10T04:16:17.940Z,14.63
2023-09-10T04:18:47.255Z,14.65
2023-09-10T04:21:14.502Z,14.74
2023-09-10T04:23:41.171Z,14.69
2023-09-10T04:26:07.974Z,14.68
2023-09-10T04:28:34.673Z,14.69
2023-09-10T04:31:02.218Z,14.74
2023-09-10T04:33:29.537Z,14.75
2023-09-10T04:35:58.384Z,14.75
2023-09-10T04:38:25.726Z,14.59
2023-09-10T04:40:52.768Z,14.49
2023-09-10T04:43:19.552Z,14.50
2023-09-10T04:45:47.402Z,14.63
2023-09-10T04:48:14.930Z,14.36
2023-09-10T04:50:42.089Z,14.34
2023-09-10T04:53:08.764Z,14.76
2023-09-10T04:55:35.588Z,14.65
2023-09-10T04:58:02.450Z,14.97
2023-09-10T05:00:29.207Z,15.14
2023-09-10T05:02:56.175Z,15.14
2023-09-10T05:05:23.149Z,15.16
2023-09-10T05:07:51.126Z,15.03
2023-09-10T05:10:18.110Z,14.90
2023-09-10T05:12:45.161Z,15.19
2023-09-10T05:15:13.303Z,15.37
2023-09-10T05:17:40.397Z,15.28
2023-09-10T05:20:08.806Z,15.52
2023-09-10T05:22:35.914Z,15.69
2023-09-10T05:25:03.382Z,15.80
2023-09-10T05:27:30.095Z,15.78
2023-09-10T05:29:56.814Z,15.95
2023-09-10T05:32:23.475Z,16.20
2023-09-10T05:34:50.494Z,16.39
2023-09-10T05:37:17.431Z,16.73
2023-09-10T05:39:44.056Z,16.88
2023-09-10T05:42:10.714Z,16.90
2023-09-10T05:44:37.552Z,17.13
2023-09-10T05:47:04.379Z,16.90
2023-09-10T05:49:31.120Z,17.30
2023-09-10T05:51:57.700Z,17.43
2023-09-10T05:54:25.398Z,17.59
2023-09-10T05:56:52.012Z,17.50
2023-09-10T05:59:18.644Z,18.04
2023-09-10T06:01:45.364Z,18.14
2023-09-10T06:04:12.127Z,17.85
2023-09-10T06:06:38.869Z,17.95
2023-09-10T06:09:05.963Z,18.24
2023-09-10T06:11:32.791Z,18.37
2023-09-10T06:13:59.418Z,18.76
2023-09-10T06:16:26.342Z,19.18
2023-09-10T06:18:53.141Z,19.97
2023-09-10T06:21:20.130Z,20.31
2023-09-10T06:23:46.807Z,20.96
2023-09-10T06:26:14.578Z,20.76
2023-09-10T06:28:42.990Z,21.11
2023-09-10T06:31:10.244Z,20.67
2023-09-10T06:33:37.151Z,21.34
2023-09-10T06:36:04.109Z,21.66
2023-09-10T06:38:30.876Z,21.99
2023-09-10T06:40:57.903Z,22.29
2023-09-10T06:43:24.635Z,22.64
2023-09-10T06:46:08.329Z,22.09
2023-09-10T06:48:34.937Z,22.35
2023-09-10T06:51:04.455Z,22.36
2023-09-10T06:53:31.387Z,23.77
2023-09-10T06:55:58.670Z,24.08
2023-09-10T06:58:25.277Z,24.25
2023-09-10T07:00:51.927Z,23.43
2023-09-10T07:03:18.561Z,24.62
2023-09-10T07:05:45.558Z,24.42
2023-09-10T07:08:12.591Z,23.54
2023-09-10T07:10:39.536Z,23.31
2023-09-10T07:13:07.797Z,23.88
2023-09-10T07:15:35.259Z,25.02
2023-09-10T07:18:02.185Z,24.69
2023-09-10T07:20:28.866Z,24.03
2023-09-10T07:22:55.515Z,25.06
2023-09-10T07:25:22.305Z,25.75
2023-09-10T07:27:48.901Z,25.65
2023-09-10T07:30:15.522Z,25.42
2023-09-10T07:32:43.104Z,26.00
2023-09-10T07:35:09.997Z,25.46
2023-09-10T07:37:36.822Z,25.08
2023-09-10T07:40:03.582Z,26.20
2023-09-10T07:42:30.192Z,25.34
2023-09-10T07:44:56.812Z,25.55
2023-09-10T07:47:23.420Z,25.79
2023-09-10T07:49:53.244Z,26.12
2023-09-10T07:52:19.948Z,26.27
2023-09-10T07:54:47.165Z,25.22
2023-09-10T07:57:16.010Z,26.73
2023-09-10T07:59:42.923Z,25.78
2023-09-10T08:02:09.615Z,26.91
2023-09-10T08:04:36.286Z,27.59
2023-09-10T08:07:06.030Z,28.00
2023-09-10T08:09:32.971Z,27.66
2023-09-10T08:11:59.956Z,27.66
2023-09-10T08:14:26.844Z,27.72
2023-09-10T08:16:53.678Z,27.53
2023-09-10T08:19:20.495Z,27.50
2023-09-10T08:21:47.344Z,28.41
2023-09-10T08:24:13.982Z,28.04
2023-09-10T08:26:40.765Z,28.08
2023-09-10T08:29:07.479Z,28.53
2023-09-10T08:31:34.286Z,28.01
2023-09-10T08:34:01.087Z,28.30
2023-09-10T08:36:27.908Z,28.76
2023-09-10T08:38:55.717Z,27.61
2023-09-10T08:41:22.394Z,27.60
2023-09-10T08:43:56.941Z,28.11
2023-09-10T08:46:31.114Z,27.48
2023-09-10T08:48:59.040Z,27.88
2023-09-10T08:51:26.444Z,27.80
2023-09-10T08:53:57.232Z,27.82
2023-09-10T08:56:25.075Z,27.29
2023-09-10T08:58:52.565Z,27.61
2023-09-10T09:01:20.355Z,28.49
2023-09-10T09:03:49.107Z,28.57
2023-09-10T09:06:16.833Z,29.03
2023-09-10T09:08:49.568Z,29.81
2023-09-10T09:11:17.691Z,29.15
2023-09-10T09:13:48.218Z,29.26
2023-09-10T09:16:16.508Z,29.75
2023-09-10T09:18:44.736Z,28.70
2023-09-10T09:21:22.725Z,29.76
2023-09-10T09:23:59.333Z,29.89
2023-09-10T09:26:28.332Z,29.54
2023-09-10T09:28:58.862Z,29.77
2023-09-10T09:31:26.607Z,30.02
2023-09-10T09:33:54.078Z,31.12
2023-09-10T09:36:28.003Z,30.44
2023-09-10T09:38:55.774Z,29.99
2023-09-10T09:41:22.513Z,30.01
2023-09-10T09:43:49.289Z,30.55
2023-09-10T09:46:15.939Z,30.27
2023-09-10T09:48:43.066Z,29.44
2023-09-10T09:51:11.064Z,31.22
2023-09-10T09:53:37.880Z,30.83
2023-09-10T09:56:06.263Z,31.25
2023-09-10T09:58:34.232Z,30.98
2023-09-10T10:01:01.790Z,31.10
2023-09-10T10:03:32.529Z,31.39
2023-09-10T10:05:59.355Z,31.80
2023-09-10T10:08:27.869Z,32.11
2023-09-10T10:10:55.140Z,31.44
2023-09-10T10:13:24.639Z,31.15
2023-09-10T10:15:54.173Z,29.39
2023-09-10T10:18:22.837Z,30.73
2023-09-10T10:20:51.024Z,32.35
2023-09-10T10:23:24.614Z,33.23
2023-09-10T10:25:54.367Z,31.68
2023-09-10T10:28:21.826Z,32.45
2023-09-10T10:30:59.872Z,33.26
2023-09-10T10:33:29.188Z,32.48
2023-09-10T10:36:03.617Z,32.07
2023-09-10T10:38:35.012Z,32.59
2023-09-10T10:41:13.793Z,32.61
2023-09-10T10:44:14.557Z,33.46
2023-09-10T10:46:44.472Z,33.15
2023-09-10T10:49:11.511Z,34.37
2023-09-10T10:51:55.967Z,32.93
2023-09-10T10:54:24.032Z,33.43
2023-09-10T10:56:51.241Z,32.93
2023-09-10T10:59:18.818Z,32.80
2023-09-10T11:02:10.912Z,33.30
2023-09-10T11:04:37.599Z,33.84
2023-09-10T11:07:16.973Z,32.57
2023-09-10T11:09:43.961Z,34.02
2023-09-10T11:12:10.722Z,34.26
2023-09-10T11:15:02.042Z,34.01
2023-09-10T11:17:30.943Z,34.46
2023-09-10T11:19:57.681Z,34.07
2023-09-10T11:22:24.498Z,33.62
2023-09-10T11:25:01.878Z,32.13
2023-09-10T11:27:28.623Z,33.89
2023-09-10T11:30:15.290Z,33.74
2023-09-10T11:32:46.240Z,33.68
2023-09-10T11:35:19.838Z,34.27
2023-09-10T11:37:49.339Z,33.26
2023-09-10T11:40:16.435Z,33.89
2023-09-10T11:42:44.325Z,34.31
2023-09-10T11:45:11.768Z,33.73
2023-09-10T11:47:46.076Z,33.79
2023-09-10T11:50:14.683Z,32.63
2023-09-10T11:52:41.515Z,32.99
2023-09-10T11:55:11.763Z,33.35
2023-09-10T11:57:39.253Z,34.37
2023-09-10T12:00:07.837Z,35.02
2023-09-10T12:02:41.946Z,34.73
2023-09-10T12:05:09.812Z,32.78
2023-09-10T12:07:37.053Z,33.98
2023-09-10T12:10:04.641Z,34.17
2023-09-10T12:12:34.943Z,32.48
2023-09-10T12:15:02.208Z,33.34
2023-09-10T12:17:29.116Z,34.86
2023-09-10T12:19:56.331Z,34.63
2023-09-10T12:22:23.073Z,35.18
2023-09-10T12:24:49.761Z,35.44
2023-09-10T12:27:16.748Z,34.41
2023-09-10T12:29:43.823Z,34.34
2023-09-10T12:32:10.656Z,32.50
2023-09-10T12:34:39.095Z,33.96
2023-09-10T12:37:05.925Z,34.56
2023-09-10T12:39:34.617Z,35.20
2023-09-10T12:42:04.760Z,35.67
2023-09-10T12:44:32.579Z,34.19
2023-09-10T12:47:01.889Z,34.84
2023-09-10T12:49:28.808Z,35.35
2023-09-10T12:51:55.513Z,34.62
2023-09-10T12:54:22.294Z,32.87
2023-09-10T12:56:50.240Z,34.11
2023-09-10T12:59:16.944Z,34.59
2023-09-10T13:01:43.953Z,34.86
2023-09-10T13:04:10.826Z,34.73
2023-09-10T13:06:37.796Z,35.03
2023-09-10T13:09:05.429Z,33.73
2023-09-10T13:11:34.953Z,33.41
2023-09-10T13:14:04.772Z,34.06
2023-09-10T13:16:31.509Z,33.54
2023-09-10T13:18:58.282Z,33.59
2023-09-10T13:21:25.037Z,34.10
2023-09-10T13:23:51.689Z,33.78
2023-09-10T13:26:18.799Z,33.30
2023-09-10T13:28:45.623Z,34.01
2023-09-10T13:31:12.325Z,34.03
2023-09-10T13:33:39.250Z,33.33
2023-09-10T13:36:06.347Z,34.01
2023-09-10T13:38:32.978Z,33.97
2023-09-10T13:40:59.770Z,34.42
2023-09-10T13:43:26.459Z,34.65
2023-09-10T13:45:53.139Z,34.38
2023-09-10T13:48:19.793Z,33.86
2023-09-10T13:50:46.593Z,33.63
2023-09-10T13:53:13.314Z,34.27
2023-09-10T13:55:40.160Z,34.82
2023-09-10T13:58:06.825Z,33.58
2023-09-10T14:00:34.637Z,33.42
2023-09-10T14:03:01.502Z,32.49
2023-09-10T14:05:31.411Z,33.64
2023-09-10T14:07:58.617Z,33.42
2023-09-10T14:10:25.828Z,34.04
2023-09-10T14:12:53.524Z,33.32
2023-09-10T14:15:20.232Z,33.32
2023-09-10T14:17:47.019Z,33.50
2023-09-10T14:20:13.888Z,32.99
2023-09-10T14:22:41.611Z,32.76
2023-09-10T14:25:16.200Z,32.93
2023-09-10T14:27:42.949Z,33.40
2023-09-10T14:30:10.009Z,33.79
2023-09-10T14:32:37.538Z,33.64
2023-09-10T14:35:05.590Z,33.03
2023-09-10T14:37:32.471Z,33.72
2023-09-10T14:39:59.206Z,33.02
2023-09-10T14:42:25.963Z,32.60
2023-09-10T14:44:52.536Z,32.61
2023-09-10T14:47:19.230Z,32.01
2023-09-10T14:49:45.885Z,32.13
2023-09-10T14:52:12.592Z,32.22
2023-09-10T14:54:39.251Z,32.10
2023-09-10T14:57:05.858Z,31.95
2023-09-10T14:59:32.575Z,32.07
2023-09-10T15:01:59.486Z,32.34
2023-09-10T15:04:26.389Z,32.06
2023-09-10T15:06:54.996Z,31.78
2023-09-10T15:09:22.990Z,31.69
2023-09-10T15:11:50.126Z,31.65
2023-09-10T15:14:16.830Z,31.44
2023-09-10T15:16:43.462Z,31.86
2023-09-10T15:19:10.054Z,31.01
2023-09-10T15:21:36.750Z,31.25
2023-09-10T15:24:03.598Z,31.10
2023-09-10T15:26:30.196Z,31.31
2023-09-10T15:28:56.847Z,31.31
2023-09-10T15:31:24.496Z,31.25
2023-09-10T15:33:51.175Z,30.93
2023-09-10T15:36:17.788Z,31.12
2023-09-10T15:38:45.336Z,30.57
2023-09-10T15:41:12.342Z,30.70
2023-09-10T15:43:40.476Z,29.76
2023-09-10T15:46:07.383Z,29.48
2023-09-10T15:48:38.818Z,29.99
2023-09-10T15:51:06.704Z,29.22
2023-09-10T15:53:33.465Z,28.95
2023-09-10T15:56:00.286Z,29.20
2023-09-10T15:58:27.117Z,29.24
2023-09-10T16:00:55.565Z,28.70
2023-09-10T16:03:22.682Z,28.40
2023-09-10T16:05:49.766Z,28.19
2023-09-10T16:08:16.642Z,28.27
2023-09-10T16:10:43.511Z,27.98
2023-09-10T16:13:10.217Z,27.36
2023-09-10T16:15:37.571Z,27.51
2023-09-10T16:18:04.809Z,27.46
2023-09-10T16:20:31.610Z,27.17
2023-09-10T16:22:58.325Z,26.88
2023-09-10T16:25:24.999Z,26.68
2023-09-10T16:27:51.667Z,26.49
2023-09-10T16:30:18.388Z,26.28
2023-09-10T16:32:46.888Z,26.11
2023-09-10T16:35:13.833Z,26.23
2023-09-10T16:37:40.927Z,26.25
2023-09-10T16:40:08.981Z,26.25
2023-09-10T16:42:35.690Z,25.97
2023-09-10T16:45:02.379Z,25.72
2023-09-10T16:47:29.316Z,25.81
2023-09-10T16:49:56.148Z,25.47
2023-09-10T16:52:22.777Z,25.27
2023-09-10T16:54:49.366Z,25.13
2023-09-10T16:57:16.104Z,25.18
2023-09-10T16:59:48.219Z,24.89
2023-09-10T17:02:15.758Z,24.44
2023-09-10T17:04:42.601Z,24.55
2023-09-10T17:07:09.897Z,24.40
2023-09-10T17:09:36.909Z,24.65
2023-09-10T17:12:06.765Z,24.14
2023-09-10T17:14:33.846Z,23.80
2023-09-10T17:17:03.699Z,24.05
2023-09-10T17:19:31.280Z,24.10
2023-09-10T17:21:57.925Z,23.85
2023-09-10T17:24:26.385Z,23.69
2023-09-10T17:26:53.568Z,23.55
2023-09-10T17:29:20.232Z,23.46
2023-09-10T17:31:47.172Z,23.45
2023-09-10T17:34:13.902Z,23.24
2023-09-10T17:36:40.514Z,23.16
2023-09-10T17:39:07.216Z,23.25
2023-09-10T17:41:33.858Z,23.38
2023-09-10T17:44:02.414Z,22.95
2023-09-10T17:46:29.705Z,22.90
2023-09-10T17:48:56.439Z,22.88
2023-09-10T17:51:23.066Z,22.66
2023-09-10T17:53:49.828Z,22.71
2023-09-10T17:56:16.793Z,22.51
2023-09-10T17:58:43.493Z,22.62
2023-09-10T18:01:10.197Z,22.58
2023-09-10T18:03:36.951Z,22.55
2023-09-10T18:06:03.771Z,22.30
2023-09-10T18:08:30.433Z,22.10
2023-09-10T18:10:57.048Z,22.09
2023-09-10T18:13:23.693Z,22.13
2023-09-10T18:15:50.396Z,22.28
2023-09-10T18:18:17.480Z,22.31
2023-09-10T18:20:44.602Z,22.15
2023-09-10T18:23:11.354Z,22.01
2023-09-10T18:25:38.149Z,22.01
2023-09-10T18:28:05.122Z,21.90
2023-09-10T18:30:32.710Z,21.94
2023-09-10T18:32:59.408Z,21.69
2023-09-10T18:35:26.433Z,21.69
2023-09-10T18:37:53.204Z,21.89
2023-09-10T18:40:20.079Z,21.97
2023-09-10T18:42:48.773Z,21.64
2023-09-10T18:45:15.870Z,21.48
2023-09-10T18:47:42.544Z,21.58
2023-09-10T18:50:09.546Z,21.63
2023-09-10T18:52:36.178Z,21.69
2023-09-10T18:55:02.896Z,21.48
2023-09-10T18:57:29.656Z,21.28
2023-09-10T18:59:56.381Z,21.27
2023-09-10T19:02:23.082Z,21.09
2023-09-10T19:04:49.796Z,21.04
2023-09-10T19:07:16.700Z,21.05
2023-09-10T19:09:44.396Z,20.93
2023-09-10T19:12:10.982Z,21.15
2023-09-10T19:14:37.753Z,20.92
2023-09-10T19:17:04.700Z,20.52
2023-09-10T19:19:32.035Z,20.71
2023-09-10T19:21:58.997Z,20.53
2023-09-10T19:24:25.779Z,20.62
2023-09-10T19:26:52.460Z,20.84
2023-09-10T19:29:19.038Z,20.74
2023-09-10T19:31:45.790Z,20.71
2023-09-10T19:34:13.019Z,20.54
2023-09-10T19:36:39.792Z,20.51
2023-09-10T19:39:11.249Z,20.28
2023-09-10T19:41:39.366Z,20.29
2023-09-10T19:44:08.421Z,20.33
2023-09-10T19:46:35.940Z,20.28
2023-09-10T19:49:02.698Z,20.35
2023-09-10T19:51:29.336Z,20.26
2023-09-10T19:53:55.992Z,20.29
2023-09-10T19:56:25.805Z,20.06
2023-09-10T19:59:14.196Z,19.89
2023-09-10T20:01:42.677Z,20.06
2023-09-10T20:04:10.057Z,20.16
2023-09-10T20:06:39.916Z,19.94
2023-09-10T20:09:08.368Z,20.00
2023-09-10T20:11:36.049Z,20.02
2023-09-10T20:14:03.401Z,19.90
2023-09-10T20:16:30.082Z,19.83
2023-09-10T20:18:56.752Z,19.72
2023-09-10T20:21:24.134Z,19.53
2023-09-10T20:23:51.242Z,19.44
2023-09-10T20:26:17.995Z,19.52
2023-09-10T20:28:44.638Z,19.52
2023-09-10T20:31:11.249Z,19.56
2023-09-10T20:33:38.444Z,19.28
2023-09-10T20:36:07.730Z,19.41
2023-09-10T20:38:35.380Z,19.50
2023-09-10T20:41:10.827Z,19.22
2023-09-10T20:43:37.929Z,19.10
2023-09-10T20:46:04.864Z,19.03
2023-09-10T20:48:32.145Z,19.02
2023-09-10T20:50:58.960Z,18.83
2023-09-10T20:53:25.677Z,18.96
2023-09-10T20:55:52.413Z,19.16
2023-09-10T20:58:18.989Z,19.14
2023-09-10T21:00:45.934Z,19.09
2023-09-10T21:03:22.153Z,19.03
2023-09-10T21:05:56.615Z,18.81
2023-09-10T21:08:23.476Z,19.02
2023-09-10T21:10:50.158Z,19.10
2023-09-10T21:13:16.786Z,18.87
2023-09-10T21:15:44.152Z,18.75
2023-09-10T21:18:10.885Z,18.92
2023-09-10T21:20:37.510Z,18.78
2023-09-10T21:23:04.259Z,18.82
2023-09-10T21:25:30.883Z,18.71
2023-09-10T21:27:57.536Z,18.86
2023-09-10T21:30:24.797Z,18.79
2023-09-10T21:32:51.501Z,18.54
2023-09-10T21:35:18.120Z,18.63
2023-09-10T21:37:44.773Z,18.62
2023-09-10T21:40:11.977Z,18.70
2023-09-10T21:42:38.844Z,18.46
2023-09-10T21:45:06.128Z,18.53
2023-09-10T21:47:32.807Z,18.66
2023-09-10T21:49:59.467Z,18.49
2023-09-10T21:52:26.048Z,18.36
2023-09-10T21:54:52.833Z,18.60
2023-09-10T21:57:19.520Z,18.48
2023-09-10T21:59:46.156Z,18.49
2023-09-10T22:02:12.766Z,18.36
2023-09-10T22:04:39.460Z,18.14
2023-09-10T22:07:06.119Z,18.19
2023-09-10T22:09:33.755Z,18.28
2023-09-10T22:12:00.525Z,18.41
2023-09-10T22:14:27.257Z,18.35
2023-09-10T22:16:53.943Z,18.29
2023-09-10T22:19:20.688Z,18.31
2023-09-10T22:21:47.405Z,17.93
2023-09-10T22:24:14.106Z,18.12
2023-09-10T22:26:40.923Z,18.25
2023-09-10T22:29:07.553Z,17.97
2023-09-10T22:31:34.290Z,17.99
2023-09-10T22:34:00.990Z,17.90
2023-09-10T22:36:37.654Z,18.01
2023-09-10T22:39:05.708Z,17.90
2023-09-10T22:41:32.521Z,17.98
2023-09-10T22:43:59.353Z,18.04
2023-09-10T22:46:27.202Z,17.87
2023-09-10T22:48:53.843Z,17.89
2023-09-10T22:51:20.674Z,17.97
2023-09-10T22:53:51.618Z,17.91
2023-09-10T22:56:19.062Z,17.93
2023-09-10T22:58:47.673Z,17.95
2023-09-10T23:01:18.070Z,17.66
2023-09-10T23:03:45.074Z,17.72
2023-09-10T23:06:12.405Z,17.72
2023-09-10T23:08:39.910Z,17.37
2023-09-10T23:11:07.472Z,17.37
2023-09-10T23:13:35.898Z,17.33
2023-09-10T23:16:05.863Z,17.44
2023-09-10T23:18:32.498Z,17.66
2023-09-10T23:20:59.172Z,17.42
2023-09-10T23:23:25.917Z,17.19
2023-09-10T23:25:52.717Z,17.04
2023-09-10T23:28:19.413Z,17.22
2023-09-10T23:30:46.056Z,17.35
2023-09-10T23:33:12.777Z,17.21
2023-09-10T23:35:39.728Z,17.19
2023-09-10T23:38:08.236Z,17.41
2023-09-10T23:40:37.454Z,17.35
2023-09-10T23:43:04.209Z,17.23
2023-09-10T23:45:30.854Z,17.27
2023-09-10T23:47:57.593Z,17.33
2023-09-10T23:50:24.269Z,17.23
2023-09-10T23:52:50.875Z,17.22
2023-09-10T23:55:17.658Z,17.41
2023-09-10T23:57:44.568Z,17.48
